x

Gulf Of Maine - 78 Nm East Of Portsmouth, Nh (44005) Wave Buoy

2:50pm - Tue 2nd Sep 2014 All times are EDT. -4 hours from GMT.

  • Sig Wave height 3.3ft
  • Peak Period 7s
  • Average Period 6s
  • Wind
    11mph, 13mph gusts
  • Sea Temp 69°f
  • Air Temp 70°f
  • Sea Pressure 1009.4mb
  • Gulf Of Maine - 78 Nm East Of Portsmouth, Nh
  • Gulf Of Maine - 78 Nm East Of Portsmouth, Nh

More Historic Weather Station data

Upgrade to MSW Pro to gain access to the past 30 days of data for over 8000 Wavebouys and Weather Stations around the globe.

Join Pro

Comparision Forecast

View Surf forecast
   
Tue 09/02 2:50pm 3.5ft 7s 6s 11 13 mph 1009.4mb 69f 70f
1:50pm 2.5ft 7s 6s 11
mph
1010.3mb 69f 70f
12:50pm 3ft 6s 6s 9 11 mph 1010.9mb 68f 70f
11:50am 2.5ft 6s 6s 11
mph
1011.9mb 68f 69f
10:50am 2.5ft 7s 6s 9 11 mph 1012.5mb 68f 69f
9:50am 2.5ft 7s 6s 9
mph
1012.6mb 67f 69f
8:50am 2.5ft 7s 6s 7 9 mph 1012.6mb 67f 68f
7:50am 2.5ft 7s 6s 9
mph
1012.3mb 66f 68f
6:50am 2.5ft 6s 6s 7 9 mph 1012.2mb 66f 67f
5:50am 2.5ft 7s 5s 4
mph
1011.7mb 66f 67f
4:50am 2.5ft 7s 5s 4
mph
1011.3mb 65f 67f
3:50am 2.5ft 6s 5s 4 7 mph 1011.8mb 65f 67f
2:50am 2.5ft 7s 5s 7
mph
1012.3mb 65f 67f
1:50am 2.5ft 6s 5s 7
mph
1012.7mb 66f 67f
12:50am 3ft 6s 6s 7
mph
1012.9mb 66f 68f
Mon 09/01 11:50pm 2.5ft 6s 6s 7
mph
1012.8mb 66f 67f
10:50pm 2.5ft 6s 6s 4
mph
1013.3mb 66f 67f
9:50pm 2.5ft 7s 6s 4
mph
1013.5mb 66f 67f
8:50pm 2.5ft 7s 6s 7 9 mph 1013.2mb 66f 67f
7:50pm 2.5ft 7s 6s 4 7 mph 1012.8mb 66f 68f
6:50pm 2.5ft 6s 6s 4 7 mph 1012.3mb 66f 68f
5:50pm 3ft 6s 5s 7 9 mph 1012.4mb 66f 68f
4:50pm 3ft 6s 5s 7 9 mph 1012.6mb 66f 67f
3:50pm 3.5ft 6s 5s 4 7 mph 1013mb 67f 67f
2:50pm 3ft 6s 5s 4 7 mph 1013.3mb 66f 67f
1:50pm 3.5ft 6s 5s 4 7 mph 1013.5mb 66f 67f
12:50pm 3.5ft 6s 5s 4 7 mph 1013.8mb 66f 66f
11:50am 3.5ft 6s 5s 4
mph
1013.8mb 65f 66f
10:50am 3.5ft 6s 5s 4
mph
1013.9mb 65f 66f
9:50am 3.5ft 6s 5s 7
mph
1014mb 64f 66f
8:50am 3.5ft 6s 5s 7 9 mph 1014mb 64f 66f
7:50am 3.5ft 6s 5s 7
mph
1014mb 63f 65f
6:50am 3.5ft 6s 5s 7
mph
1013.6mb 64f 66f
5:50am 3.5ft 6s 5s 9 11 mph 1013.4mb 64f 67f
4:50am 3.5ft 5s 5s 11
mph
1012.7mb 64f 67f
3:50am 4ft 6s 5s 11
mph
1012.5mb 64f 67f
2:50am 4.5ft 6s 5s 9 11 mph 1012.6mb 65f 68f
1:50am 4ft 6s 5s 7
mph
1012.8mb 65f 67f
12:50am 4ft 6s 5s 7 9 mph 1013.7mb 65f 68f
Sun 08/31 11:50pm 4.5ft 6s 5s 16 18 mph 1013.6mb 65f 68f
10:50pm 4.5ft 6s 5s 18 20 mph 1013.2mb 65f 68f
9:50pm 4.5ft 6s 5s 20 22 mph 1013.7mb 65f 69f
8:50pm 4ft 6s 5s 18 22 mph 1013.9mb 65f 69f
7:50pm 3.5ft 6s 4s 18 22 mph 1013.5mb 65f 69f
6:50pm 3.5ft 6s 4s 16 18 mph 1013.8mb 65f 69f
5:50pm 4.5ft 5s 5s 16 18 mph 1013.7mb 65f 69f
4:50pm 4.5ft 5s 4s 18 20 mph 1013.6mb 65f 69f
3:50pm 4.5ft 5s 4s 20 22 mph 1013.5mb 65f 70f
2:50pm 4.5ft 6s 4s 18 22 mph 1014.1mb 65f 69f
1:50pm 5ft 6s 5s 20 22 mph 1014.4mb 65f 69f
12:50pm 4.5ft 6s 4s 18 22 mph 1015.1mb 65f 69f
11:50am 4.5ft 5s 5s 20 25 mph 1015.9mb 65f 69f
10:50am 5ft 6s 5s 20 25 mph 1016.3mb 64f 68f
9:50am 5ft 6s 5s 20 25 mph 1016.9mb 64f 68f
8:50am 4.5ft 6s 5s 20 25 mph 1017.1mb 64f 68f
7:50am 4.5ft 6s 5s 22 25 mph 1017.2mb 64f 68f
6:50am 5ft 6s 5s 20 22 mph 1017.5mb 65f 68f
5:50am 5ft 5s 5s 22 27 mph 1017.4mb 65f 68f
4:50am 5ft 6s 5s 22 25 mph 1017.6mb 65f 67f
3:50am 5ft 6s 5s 20 25 mph 1017.9mb 65f 67f
2:50am 5ft 6s 5s 22 27 mph 1018.4mb 65f 67f
1:50am 5.5ft 6s 5s 20 27 mph 1019mb 65f 66f
12:50am 5ft 6s 5s 22 27 mph 1019.4mb 65f 66f
Sat 08/30 11:50pm 5ft 6s 5s 25 27 mph 1019.7mb 65f 66f
10:50pm 5ft 6s 5s 22 29 mph 1020.2mb 65f 66f
9:50pm 5ft 6s 5s 22 27 mph 1020.4mb 65f 66f
8:50pm 4.5ft 5s 5s 22 27 mph 1020.6mb 65f 66f
7:50pm 4.5ft 5s 4s 20 25 mph 1020.6mb 65f 65f
6:50pm 4ft 4s 4s 22 25 mph 1020.9mb 65f 65f
5:50pm 3.5ft 4s 4s 20 22 mph 1021.7mb 65f 65f
4:50pm 3.5ft 4s 4s 20 22 mph 1022.1mb 65f 65f
3:50pm 3ft 3s 4s 18 20 mph 1022.7mb 65f 64f
2:50pm 3ft 9s 4s 18 20 mph 1023mb 65f 65f
1:50pm 3ft 4s 4s 16 18 mph 1024.1mb 65f 65f
12:50pm 2.5ft 10s 5s 16 18 mph 1024.8mb 65f 64f
11:50am 2.5ft 8s 5s 16 18 mph 1025.1mb 65f 64f
10:50am 3ft 9s 5s 13 18 mph 1025.9mb 65f 64f
9:50am 3ft 8s 5s 16 18 mph 1025.8mb 65f 64f
8:50am 3.5ft 8s 6s 13 16 mph 1025.9mb 65f 65f
7:50am 3.5ft 8s 6s 13 16 mph 1026mb 65f 65f
6:50am  -   -   -  13
mph
1025.9mb 65f 65f
5:50am 3ft 9s 5s 13 16 mph 1025.8mb 65f 64f
4:50am 3.5ft 9s 6s 13 16 mph 1025.4mb 65f 65f
3:50am 3ft 9s 5s 11 13 mph 1025.2mb 65f 65f
2:50am 2.5ft 11s 5s 11 13 mph 1025.1mb 65f 64f
1:50am 2.5ft 11s 6s 11 13 mph 1024.8mb 65f 64f
12:50am 3ft 11s 7s 9 11 mph 1024.6mb 65f 64f
Fri 08/29 11:50pm 2.5ft 11s 7s 9 11 mph 1024.5mb 66f 64f
10:50pm 3ft 11s 7s 11 13 mph 1024.3mb 66f 64f
9:50pm 3.5ft 11s 8s 11 13 mph 1024.2mb 66f 64f
8:50pm 3.5ft 11s 8s 7 9 mph 1023.9mb 66f 64f
7:50pm 3.5ft 11s 8s 7 9 mph 1023.6mb 66f 63f